Terminal Aerodrome Forecast
Issued by NWS Cleveland, OH

Home | Current Version | Previous Version | Text Only | Print | Product List | Glossary On
Versions: 1 2 3 4 5 6 7 8 9 10 11 12 13 14 15 16 17 18 19 20 21 22 23 24 25 26 27 28 29
979
FTUS41 KCLE 270938 AAC
TAFCLE
TAF AMD
KCLE 270938Z 2710/2812 18009KT P6SM BKN070
     FM271500 20008KT P6SM BKN040 OVC070
     FM272200 17008KT P6SM SCT030 OVC035
     FM280300 15005KT P6SM OVC030=

USA.gov is the U.S. government's official web portal to all federal, state and local government web resources and services.